sensor_id;sensor_type;location;lat;lon;timestamp;P1;durP1;ratioP1;P2;durP2;ratioP2
44508;SDS011;30214;52.246;14.408;2023-04-24T00:01:41;6.53;;;4.70;;
44508;SDS011;30214;52.246;14.408;2023-04-24T00:04:08;8.18;;;5.03;;
44508;SDS011;30214;52.246;14.408;2023-04-24T00:06:36;6.57;;;5.05;;
44508;SDS011;30214;52.246;14.408;2023-04-24T00:09:03;6.63;;;5.18;;
44508;SDS011;30214;52.246;14.408;2023-04-24T00:11:32;7.38;;;5.20;;
44508;SDS011;30214;52.246;14.408;2023-04-24T00:13:59;7.13;;;5.10;;
44508;SDS011;30214;52.246;14.408;2023-04-24T00:16:26;7.53;;;4.88;;
44508;SDS011;30214;52.246;14.408;2023-04-24T00:18:53;9.27;;;6.18;;
44508;SDS011;30214;52.246;14.408;2023-04-24T00:21:20;9.27;;;5.63;;
44508;SDS011;30214;52.246;14.408;2023-04-24T00:23:50;10.20;;;5.80;;
44508;SDS011;30214;52.246;14.408;2023-04-24T00:26:18;7.20;;;5.07;;
44508;SDS011;30214;52.246;14.408;2023-04-24T00:28:46;7.93;;;5.55;;
44508;SDS011;30214;52.246;14.408;2023-04-24T00:31:13;12.10;;;6.05;;
44508;SDS011;30214;52.246;14.408;2023-04-24T00:33:40;10.95;;;5.18;;
44508;SDS011;30214;52.246;14.408;2023-04-24T00:36:08;8.73;;;5.32;;
44508;SDS011;30214;52.246;14.408;2023-04-24T00:38:35;8.32;;;5.28;;
44508;SDS011;30214;52.246;14.408;2023-04-24T00:41:02;8.85;;;5.13;;
44508;SDS011;30214;52.246;14.408;2023-04-24T00:43:30;11.98;;;5.93;;
44508;SDS011;30214;52.246;14.408;2023-04-24T00:45:58;9.50;;;5.13;;
44508;SDS011;30214;52.246;14.408;2023-04-24T00:48:26;11.75;;;5.95;;
44508;SDS011;30214;52.246;14.408;2023-04-24T00:50:54;8.73;;;6.20;;
44508;SDS011;30214;52.246;14.408;2023-04-24T00:53:22;8.68;;;6.10;;
44508;SDS011;30214;52.246;14.408;2023-04-24T00:55:49;8.05;;;5.63;;
44508;SDS011;30214;52.246;14.408;2023-04-24T00:58:17;8.82;;;5.90;;
44508;SDS011;30214;52.246;14.408;2023-04-24T01:00:45;8.43;;;6.20;;
44508;SDS011;30214;52.246;14.408;2023-04-24T01:03:14;10.77;;;5.57;;
44508;SDS011;30214;52.246;14.408;2023-04-24T01:05:42;9.40;;;5.90;;
44508;SDS011;30214;52.246;14.408;2023-04-24T01:08:09;8.73;;;5.38;;
44508;SDS011;30214;52.246;14.408;2023-04-24T01:10:36;9.18;;;6.32;;
44508;SDS011;30214;52.246;14.408;2023-04-24T01:13:06;12.40;;;6.38;;
44508;SDS011;30214;52.246;14.408;2023-04-24T01:15:34;11.43;;;5.80;;
44508;SDS011;30214;52.246;14.408;2023-04-24T01:18:01;7.40;;;5.97;;
44508;SDS011;30214;52.246;14.408;2023-04-24T01:20:30;10.32;;;6.03;;
44508;SDS011;30214;52.246;14.408;2023-04-24T01:22:59;8.93;;;6.18;;
44508;SDS011;30214;52.246;14.408;2023-04-24T01:25:26;10.73;;;6.90;;
44508;SDS011;30214;52.246;14.408;2023-04-24T01:27:56;10.15;;;6.05;;
44508;SDS011;30214;52.246;14.408;2023-04-24T01:30:24;10.15;;;5.85;;
44508;SDS011;30214;52.246;14.408;2023-04-24T01:32:51;8.20;;;6.35;;
44508;SDS011;30214;52.246;14.408;2023-04-24T01:35:19;11.73;;;6.40;;
44508;SDS011;30214;52.246;14.408;2023-04-24T01:37:47;8.40;;;6.22;;
44508;SDS011;30214;52.246;14.408;2023-04-24T01:40:16;10.00;;;6.32;;
44508;SDS011;30214;52.246;14.408;2023-04-24T01:42:43;9.13;;;5.70;;
44508;SDS011;30214;52.246;14.408;2023-04-24T01:45:11;7.43;;;6.03;;
44508;SDS011;30214;52.246;14.408;2023-04-24T01:47:39;9.52;;;6.15;;
44508;SDS011;30214;52.246;14.408;2023-04-24T01:50:06;7.72;;;5.78;;
44508;SDS011;30214;52.246;14.408;2023-04-24T01:52:35;7.13;;;5.78;;
44508;SDS011;30214;52.246;14.408;2023-04-24T01:55:02;9.93;;;5.75;;
44508;SDS011;30214;52.246;14.408;2023-04-24T01:57:31;13.52;;;6.00;;
44508;SDS011;30214;52.246;14.408;2023-04-24T01:59:59;9.98;;;6.32;;
44508;SDS011;30214;52.246;14.408;2023-04-24T02:02:38;8.88;;;6.43;;
44508;SDS011;30214;52.246;14.408;2023-04-24T02:05:06;7.45;;;6.05;;
44508;SDS011;30214;52.246;14.408;2023-04-24T02:07:37;9.80;;;6.10;;
44508;SDS011;30214;52.246;14.408;2023-04-24T02:10:05;10.82;;;6.50;;
44508;SDS011;30214;52.246;14.408;2023-04-24T02:12:34;14.10;;;6.45;;
44508;SDS011;30214;52.246;14.408;2023-04-24T02:15:02;9.00;;;6.75;;
44508;SDS011;30214;52.246;14.408;2023-04-24T02:17:30;12.30;;;7.40;;
44508;SDS011;30214;52.246;14.408;2023-04-24T02:19:57;8.93;;;6.43;;
44508;SDS011;30214;52.246;14.408;2023-04-24T02:22:24;11.32;;;6.68;;
44508;SDS011;30214;52.246;14.408;2023-04-24T02:24:51;8.63;;;6.47;;
44508;SDS011;30214;52.246;14.408;2023-04-24T02:27:18;8.40;;;6.28;;
44508;SDS011;30214;52.246;14.408;2023-04-24T02:29:47;9.73;;;6.40;;
44508;SDS011;30214;52.246;14.408;2023-04-24T02:32:14;9.45;;;6.63;;
44508;SDS011;30214;52.246;14.408;2023-04-24T02:34:42;9.90;;;7.00;;
44508;SDS011;30214;52.246;14.408;2023-04-24T02:37:11;12.13;;;6.85;;
44508;SDS011;30214;52.246;14.408;2023-04-24T02:39:38;12.43;;;7.00;;
44508;SDS011;30214;52.246;14.408;2023-04-24T02:42:05;14.35;;;7.15;;
44508;SDS011;30214;52.246;14.408;2023-04-24T02:44:34;12.90;;;6.75;;
44508;SDS011;30214;52.246;14.408;2023-04-24T02:47:02;14.75;;;6.75;;
44508;SDS011;30214;52.246;14.408;2023-04-24T02:49:30;11.18;;;6.88;;
44508;SDS011;30214;52.246;14.408;2023-04-24T02:51:57;9.57;;;6.50;;
44508;SDS011;30214;52.246;14.408;2023-04-24T02:54:24;13.45;;;6.55;;
44508;SDS011;30214;52.246;14.408;2023-04-24T02:56:51;12.13;;;6.80;;
44508;SDS011;30214;52.246;14.408;2023-04-24T02:59:18;10.65;;;6.93;;
44508;SDS011;30214;52.246;14.408;2023-04-24T03:01:46;10.45;;;7.00;;
44508;SDS011;30214;52.246;14.408;2023-04-24T03:04:14;10.38;;;7.32;;
44508;SDS011;30214;52.246;14.408;2023-04-24T03:06:41;11.98;;;7.90;;
44508;SDS011;30214;52.246;14.408;2023-04-24T03:09:08;12.07;;;7.90;;
44508;SDS011;30214;52.246;14.408;2023-04-24T03:11:36;10.80;;;7.65;;
44508;SDS011;30214;52.246;14.408;2023-04-24T03:14:03;10.77;;;7.18;;
44508;SDS011;30214;52.246;14.408;2023-04-24T03:16:30;11.10;;;7.38;;
44508;SDS011;30214;52.246;14.408;2023-04-24T03:18:58;9.75;;;7.55;;
44508;SDS011;30214;52.246;14.408;2023-04-24T03:21:30;10.88;;;6.95;;
44508;SDS011;30214;52.246;14.408;2023-04-24T03:23:58;11.43;;;7.20;;
44508;SDS011;30214;52.246;14.408;2023-04-24T03:26:25;11.35;;;7.22;;
44508;SDS011;30214;52.246;14.408;2023-04-24T03:29:04;13.55;;;7.70;;
44508;SDS011;30214;52.246;14.408;2023-04-24T03:31:33;13.25;;;7.35;;
44508;SDS011;30214;52.246;14.408;2023-04-24T03:34:00;10.48;;;7.40;;
44508;SDS011;30214;52.246;14.408;2023-04-24T03:36:27;9.93;;;6.53;;
44508;SDS011;30214;52.246;14.408;2023-04-24T03:38:56;9.15;;;7.18;;
44508;SDS011;30214;52.246;14.408;2023-04-24T03:41:27;11.48;;;8.10;;
44508;SDS011;30214;52.246;14.408;2023-04-24T03:44:09;13.30;;;8.48;;
44508;SDS011;30214;52.246;14.408;2023-04-24T03:46:36;9.82;;;7.93;;
44508;SDS011;30214;52.246;14.408;2023-04-24T03:49:04;10.20;;;8.35;;
44508;SDS011;30214;52.246;14.408;2023-04-24T03:51:35;11.85;;;8.20;;
44508;SDS011;30214;52.246;14.408;2023-04-24T03:54:12;10.80;;;7.47;;
44508;SDS011;30214;52.246;14.408;2023-04-24T03:56:39;10.98;;;7.75;;
44508;SDS011;30214;52.246;14.408;2023-04-24T03:59:07;10.70;;;6.82;;
44508;SDS011;30214;52.246;14.408;2023-04-24T04:01:35;11.45;;;8.05;;
44508;SDS011;30214;52.246;14.408;2023-04-24T04:04:14;11.82;;;7.93;;
44508;SDS011;30214;52.246;14.408;2023-04-24T04:06:44;10.40;;;7.15;;
44508;SDS011;30214;52.246;14.408;2023-04-24T04:09:12;11.25;;;7.22;;
44508;SDS011;30214;52.246;14.408;2023-04-24T04:11:40;8.68;;;7.05;;
44508;SDS011;30214;52.246;14.408;2023-04-24T04:14:07;9.27;;;6.22;;
44508;SDS011;30214;52.246;14.408;2023-04-24T04:16:37;9.52;;;7.25;;
44508;SDS011;30214;52.246;14.408;2023-04-24T04:19:06;13.13;;;8.10;;
44508;SDS011;30214;52.246;14.408;2023-04-24T04:21:33;11.20;;;8.05;;
44508;SDS011;30214;52.246;14.408;2023-04-24T04:24:20;11.13;;;8.15;;
44508;SDS011;30214;52.246;14.408;2023-04-24T04:26:47;11.68;;;8.27;;
44508;SDS011;30214;52.246;14.408;2023-04-24T04:29:26;11.32;;;7.70;;
44508;SDS011;30214;52.246;14.408;2023-04-24T04:31:54;10.88;;;7.65;;
44508;SDS011;30214;52.246;14.408;2023-04-24T04:34:22;11.38;;;7.88;;
44508;SDS011;30214;52.246;14.408;2023-04-24T04:36:50;14.32;;;7.68;;
44508;SDS011;30214;52.246;14.408;2023-04-24T04:39:32;13.98;;;8.00;;
44508;SDS011;30214;52.246;14.408;2023-04-24T04:42:02;14.98;;;7.53;;
44508;SDS011;30214;52.246;14.408;2023-04-24T04:44:38;10.13;;;7.13;;
44508;SDS011;30214;52.246;14.408;2023-04-24T04:47:07;10.63;;;5.35;;
44508;SDS011;30214;52.246;14.408;2023-04-24T04:49:36;12.68;;;7.40;;
44508;SDS011;30214;52.246;14.408;2023-04-24T04:52:09;8.95;;;7.15;;
44508;SDS011;30214;52.246;14.408;2023-04-24T04:54:37;10.73;;;6.72;;
44508;SDS011;30214;52.246;14.408;2023-04-24T04:57:05;11.82;;;6.85;;
44508;SDS011;30214;52.246;14.408;2023-04-24T04:59:34;10.55;;;6.15;;
44508;SDS011;30214;52.246;14.408;2023-04-24T05:02:06;9.75;;;5.95;;
44508;SDS011;30214;52.246;14.408;2023-04-24T05:04:35;8.35;;;5.03;;
44508;SDS011;30214;52.246;14.408;2023-04-24T05:07:03;7.45;;;5.45;;
44508;SDS011;30214;52.246;14.408;2023-04-24T05:09:33;10.27;;;6.05;;
44508;SDS011;30214;52.246;14.408;2023-04-24T05:12:04;8.07;;;5.68;;
44508;SDS011;30214;52.246;14.408;2023-04-24T05:14:37;8.18;;;4.82;;
44508;SDS011;30214;52.246;14.408;2023-04-24T05:17:04;7.53;;;4.60;;
44508;SDS011;30214;52.246;14.408;2023-04-24T05:19:32;6.88;;;4.82;;
44508;SDS011;30214;52.246;14.408;2023-04-24T05:22:01;7.35;;;4.65;;
44508;SDS011;30214;52.246;14.408;2023-04-24T05:24:32;7.05;;;4.20;;
44508;SDS011;30214;52.246;14.408;2023-04-24T05:27:11;7.35;;;5.00;;
44508;SDS011;30214;52.246;14.408;2023-04-24T05:29:39;9.40;;;4.63;;
44508;SDS011;30214;52.246;14.408;2023-04-24T05:32:07;5.93;;;4.13;;
44508;SDS011;30214;52.246;14.408;2023-04-24T05:34:35;7.55;;;4.13;;
44508;SDS011;30214;52.246;14.408;2023-04-24T05:37:02;6.68;;;4.28;;
44508;SDS011;30214;52.246;14.408;2023-04-24T05:39:33;7.05;;;4.38;;
44508;SDS011;30214;52.246;14.408;2023-04-24T05:42:00;5.72;;;4.35;;
44508;SDS011;30214;52.246;14.408;2023-04-24T05:44:31;5.20;;;4.07;;
44508;SDS011;30214;52.246;14.408;2023-04-24T05:46:59;6.13;;;4.00;;
44508;SDS011;30214;52.246;14.408;2023-04-24T05:49:32;5.65;;;4.10;;
44508;SDS011;30214;52.246;14.408;2023-04-24T05:52:08;6.30;;;3.80;;
44508;SDS011;30214;52.246;14.408;2023-04-24T05:54:42;7.47;;;4.05;;
44508;SDS011;30214;52.246;14.408;2023-04-24T05:57:13;5.95;;;3.80;;
44508;SDS011;30214;52.246;14.408;2023-04-24T05:59:55;5.63;;;3.55;;
44508;SDS011;30214;52.246;14.408;2023-04-24T06:02:28;5.30;;;3.55;;
44508;SDS011;30214;52.246;14.408;2023-04-24T06:05:00;6.57;;;3.40;;
44508;SDS011;30214;52.246;14.408;2023-04-24T06:07:36;5.03;;;3.42;;
44508;SDS011;30214;52.246;14.408;2023-04-24T06:10:07;4.80;;;3.25;;
44508;SDS011;30214;52.246;14.408;2023-04-24T06:12:43;5.22;;;3.22;;
44508;SDS011;30214;52.246;14.408;2023-04-24T06:15:18;4.07;;;2.78;;
44508;SDS011;30214;52.246;14.408;2023-04-24T06:17:54;4.47;;;3.10;;
44508;SDS011;30214;52.246;14.408;2023-04-24T06:20:35;5.30;;;2.75;;
44508;SDS011;30214;52.246;14.408;2023-04-24T06:23:04;4.20;;;2.75;;
44508;SDS011;30214;52.246;14.408;2023-04-24T06:25:34;3.72;;;3.05;;
44508;SDS011;30214;52.246;14.408;2023-04-24T06:28:05;3.50;;;2.45;;
44508;SDS011;30214;52.246;14.408;2023-04-24T06:30:37;5.40;;;2.78;;
44508;SDS011;30214;52.246;14.408;2023-04-24T06:33:07;3.38;;;2.40;;
44508;SDS011;30214;52.246;14.408;2023-04-24T06:35:38;3.40;;;2.45;;
44508;SDS011;30214;52.246;14.408;2023-04-24T06:38:07;4.00;;;2.40;;
44508;SDS011;30214;52.246;14.408;2023-04-24T06:40:38;3.45;;;2.25;;
44508;SDS011;30214;52.246;14.408;2023-04-24T06:43:09;5.68;;;2.50;;
44508;SDS011;30214;52.246;14.408;2023-04-24T06:45:39;5.78;;;2.53;;
44508;SDS011;30214;52.246;14.408;2023-04-24T06:48:12;5.03;;;2.25;;
44508;SDS011;30214;52.246;14.408;2023-04-24T06:50:40;5.28;;;2.28;;
44508;SDS011;30214;52.246;14.408;2023-04-24T06:53:14;3.15;;;2.08;;
44508;SDS011;30214;52.246;14.408;2023-04-24T06:55:45;6.05;;;2.28;;
44508;SDS011;30214;52.246;14.408;2023-04-24T06:58:15;4.25;;;2.10;;
44508;SDS011;30214;52.246;14.408;2023-04-24T07:00:48;4.93;;;2.47;;
44508;SDS011;30214;52.246;14.408;2023-04-24T07:03:16;3.65;;;2.47;;
44508;SDS011;30214;52.246;14.408;2023-04-24T07:05:46;3.03;;;2.08;;
44508;SDS011;30214;52.246;14.408;2023-04-24T07:08:16;5.82;;;3.97;;
44508;SDS011;30214;52.246;14.408;2023-04-24T07:10:48;5.38;;;3.10;;
44508;SDS011;30214;52.246;14.408;2023-04-24T07:13:17;5.88;;;4.00;;
44508;SDS011;30214;52.246;14.408;2023-04-24T07:15:49;6.45;;;4.93;;
44508;SDS011;30214;52.246;14.408;2023-04-24T07:18:19;4.60;;;2.72;;
44508;SDS011;30214;52.246;14.408;2023-04-24T07:20:51;6.75;;;2.78;;
44508;SDS011;30214;52.246;14.408;2023-04-24T07:23:20;4.78;;;2.47;;
44508;SDS011;30214;52.246;14.408;2023-04-24T07:25:50;3.97;;;2.30;;
44508;SDS011;30214;52.246;14.408;2023-04-24T07:28:19;4.75;;;2.45;;
44508;SDS011;30214;52.246;14.408;2023-04-24T07:30:53;8.18;;;3.40;;
44508;SDS011;30214;52.246;14.408;2023-04-24T07:33:26;5.25;;;3.03;;
44508;SDS011;30214;52.246;14.408;2023-04-24T07:35:56;4.55;;;1.95;;
44508;SDS011;30214;52.246;14.408;2023-04-24T07:38:26;2.70;;;1.45;;
44508;SDS011;30214;52.246;14.408;2023-04-24T07:40:56;5.45;;;1.50;;
44508;SDS011;30214;52.246;14.408;2023-04-24T07:43:26;2.42;;;1.40;;
44508;SDS011;30214;52.246;14.408;2023-04-24T07:45:56;3.13;;;1.20;;
44508;SDS011;30214;52.246;14.408;2023-04-24T07:48:26;5.85;;;1.15;;
44508;SDS011;30214;52.246;14.408;2023-04-24T07:50:57;2.85;;;1.02;;
44508;SDS011;30214;52.246;14.408;2023-04-24T07:53:28;2.97;;;1.20;;
44508;SDS011;30214;52.246;14.408;2023-04-24T07:56:04;2.25;;;0.98;;
44508;SDS011;30214;52.246;14.408;2023-04-24T07:58:35;2.40;;;1.30;;
44508;SDS011;30214;52.246;14.408;2023-04-24T08:01:08;3.67;;;1.10;;
44508;SDS011;30214;52.246;14.408;2023-04-24T08:03:43;1.83;;;0.90;;
44508;SDS011;30214;52.246;14.408;2023-04-24T08:06:24;1.48;;;0.80;;
44508;SDS011;30214;52.246;14.408;2023-04-24T08:08:55;1.95;;;1.10;;
44508;SDS011;30214;52.246;14.408;2023-04-24T08:11:27;1.88;;;0.88;;
44508;SDS011;30214;52.246;14.408;2023-04-24T08:13:56;4.25;;;0.80;;
44508;SDS011;30214;52.246;14.408;2023-04-24T08:16:29;2.67;;;0.80;;
44508;SDS011;30214;52.246;14.408;2023-04-24T08:19:04;1.50;;;0.80;;
44508;SDS011;30214;52.246;14.408;2023-04-24T08:21:34;1.88;;;1.10;;
44508;SDS011;30214;52.246;14.408;2023-04-24T08:24:05;1.33;;;0.77;;
44508;SDS011;30214;52.246;14.408;2023-04-24T08:26:35;3.40;;;0.98;;
44508;SDS011;30214;52.246;14.408;2023-04-24T08:29:06;1.88;;;0.80;;
44508;SDS011;30214;52.246;14.408;2023-04-24T08:31:40;2.17;;;0.93;;
44508;SDS011;30214;52.246;14.408;2023-04-24T08:34:10;3.90;;;0.90;;
44508;SDS011;30214;52.246;14.408;2023-04-24T08:36:41;5.22;;;1.00;;
44508;SDS011;30214;52.246;14.408;2023-04-24T08:39:13;3.92;;;1.20;;
44508;SDS011;30214;52.246;14.408;2023-04-24T08:41:43;2.22;;;0.90;;
44508;SDS011;30214;52.246;14.408;2023-04-24T08:44:12;7.53;;;1.50;;
44508;SDS011;30214;52.246;14.408;2023-04-24T08:46:46;4.40;;;0.90;;
44508;SDS011;30214;52.246;14.408;2023-04-24T08:49:18;3.15;;;0.90;;
44508;SDS011;30214;52.246;14.408;2023-04-24T08:51:47;2.58;;;1.00;;
44508;SDS011;30214;52.246;14.408;2023-04-24T08:54:22;1.85;;;0.80;;
44508;SDS011;30214;52.246;14.408;2023-04-24T08:56:53;2.40;;;0.90;;
44508;SDS011;30214;52.246;14.408;2023-04-24T08:59:29;5.18;;;1.42;;
44508;SDS011;30214;52.246;14.408;2023-04-24T09:02:01;2.63;;;0.93;;
44508;SDS011;30214;52.246;14.408;2023-04-24T09:04:31;5.93;;;0.75;;
44508;SDS011;30214;52.246;14.408;2023-04-24T09:07:02;2.58;;;1.35;;
44508;SDS011;30214;52.246;14.408;2023-04-24T09:09:39;2.45;;;1.40;;
44508;SDS011;30214;52.246;14.408;2023-04-24T09:12:08;1.45;;;0.90;;
44508;SDS011;30214;52.246;14.408;2023-04-24T09:14:39;2.22;;;1.02;;
44508;SDS011;30214;52.246;14.408;2023-04-24T09:17:13;4.93;;;1.20;;
44508;SDS011;30214;52.246;14.408;2023-04-24T09:19:41;5.65;;;1.17;;
44508;SDS011;30214;52.246;14.408;2023-04-24T09:22:14;2.60;;;1.30;;
44508;SDS011;30214;52.246;14.408;2023-04-24T09:24:47;3.43;;;1.00;;
44508;SDS011;30214;52.246;14.408;2023-04-24T09:30:00;3.20;;;1.05;;
44508;SDS011;30214;52.246;14.408;2023-04-24T09:32:38;2.58;;;1.23;;
44508;SDS011;30214;52.246;14.408;2023-04-24T09:37:42;4.40;;;1.27;;
44508;SDS011;30214;52.246;14.408;2023-04-24T09:40:15;3.63;;;0.90;;
44508;SDS011;30214;52.246;14.408;2023-04-24T09:42:55;3.28;;;0.80;;
44508;SDS011;30214;52.246;14.408;2023-04-24T09:45:35;2.58;;;1.10;;
44508;SDS011;30214;52.246;14.408;2023-04-24T09:48:09;2.50;;;0.98;;
44508;SDS011;30214;52.246;14.408;2023-04-24T09:50:38;1.60;;;0.80;;
44508;SDS011;30214;52.246;14.408;2023-04-24T09:53:13;6.88;;;1.27;;
44508;SDS011;30214;52.246;14.408;2023-04-24T09:55:45;3.75;;;0.90;;
44508;SDS011;30214;52.246;14.408;2023-04-24T09:58:27;4.72;;;1.00;;
44508;SDS011;30214;52.246;14.408;2023-04-24T10:00:59;2.60;;;0.77;;
44508;SDS011;30214;52.246;14.408;2023-04-24T10:03:38;2.67;;;0.90;;
44508;SDS011;30214;52.246;14.408;2023-04-24T10:06:13;3.35;;;1.20;;
44508;SDS011;30214;52.246;14.408;2023-04-24T10:08:43;1.83;;;0.77;;
44508;SDS011;30214;52.246;14.408;2023-04-24T10:11:16;1.40;;;0.80;;
44508;SDS011;30214;52.246;14.408;2023-04-24T10:13:47;2.60;;;0.90;;
44508;SDS011;30214;52.246;14.408;2023-04-24T10:16:15;4.43;;;1.00;;
44508;SDS011;30214;52.246;14.408;2023-04-24T10:18:53;2.88;;;0.90;;
44508;SDS011;30214;52.246;14.408;2023-04-24T10:21:25;2.88;;;0.80;;
44508;SDS011;30214;52.246;14.408;2023-04-24T10:23:57;2.08;;;0.98;;
44508;SDS011;30214;52.246;14.408;2023-04-24T10:26:34;2.83;;;0.80;;
44508;SDS011;30214;52.246;14.408;2023-04-24T10:29:14;1.17;;;0.65;;
44508;SDS011;30214;52.246;14.408;2023-04-24T10:31:47;4.55;;;0.80;;
44508;SDS011;30214;52.246;14.408;2023-04-24T10:34:18;2.40;;;0.70;;
44508;SDS011;30214;52.246;14.408;2023-04-24T10:36:50;3.05;;;0.70;;
44508;SDS011;30214;52.246;14.408;2023-04-24T10:39:20;2.63;;;0.75;;
44508;SDS011;30214;52.246;14.408;2023-04-24T10:41:53;4.00;;;0.80;;
44508;SDS011;30214;52.246;14.408;2023-04-24T10:44:36;2.85;;;0.90;;
44508;SDS011;30214;52.246;14.408;2023-04-24T10:47:04;1.60;;;0.60;;
44508;SDS011;30214;52.246;14.408;2023-04-24T10:49:37;4.57;;;0.80;;
44508;SDS011;30214;52.246;14.408;2023-04-24T10:52:06;3.10;;;0.88;;
44508;SDS011;30214;52.246;14.408;2023-04-24T10:54:41;3.60;;;0.80;;
44508;SDS011;30214;52.246;14.408;2023-04-24T10:57:27;2.15;;;0.90;;
44508;SDS011;30214;52.246;14.408;2023-04-24T11:00:13;2.70;;;0.80;;
44508;SDS011;30214;52.246;14.408;2023-04-24T11:02:50;3.28;;;1.30;;
44508;SDS011;30214;52.246;14.408;2023-04-24T11:05:48;1.83;;;1.00;;
44508;SDS011;30214;52.246;14.408;2023-04-24T11:08:36;2.88;;;1.00;;
44508;SDS011;30214;52.246;14.408;2023-04-24T11:14:01;3.33;;;1.30;;
44508;SDS011;30214;52.246;14.408;2023-04-24T11:16:44;6.20;;;1.10;;
44508;SDS011;30214;52.246;14.408;2023-04-24T11:19:21;3.22;;;1.20;;
44508;SDS011;30214;52.246;14.408;2023-04-24T11:21:58;2.35;;;0.90;;
44508;SDS011;30214;52.246;14.408;2023-04-24T11:24:29;2.50;;;1.00;;
44508;SDS011;30214;52.246;14.408;2023-04-24T11:27:11;3.15;;;0.70;;
44508;SDS011;30214;52.246;14.408;2023-04-24T11:29:46;3.25;;;1.10;;
44508;SDS011;30214;52.246;14.408;2023-04-24T11:32:23;4.10;;;0.98;;
44508;SDS011;30214;52.246;14.408;2023-04-24T11:34:57;2.50;;;1.00;;
44508;SDS011;30214;52.246;14.408;2023-04-24T11:40:20;3.00;;;0.80;;
44508;SDS011;30214;52.246;14.408;2023-04-24T11:42:51;4.28;;;1.00;;
44508;SDS011;30214;52.246;14.408;2023-04-24T11:45:26;2.78;;;0.88;;
44508;SDS011;30214;52.246;14.408;2023-04-24T11:47:58;2.70;;;0.90;;
44508;SDS011;30214;52.246;14.408;2023-04-24T11:50:35;2.80;;;0.90;;
44508;SDS011;30214;52.246;14.408;2023-04-24T11:53:04;2.10;;;0.82;;
44508;SDS011;30214;52.246;14.408;2023-04-24T11:55:39;4.10;;;0.90;;
44508;SDS011;30214;52.246;14.408;2023-04-24T11:58:07;2.22;;;0.80;;
44508;SDS011;30214;52.246;14.408;2023-04-24T12:00:37;3.95;;;1.15;;
44508;SDS011;30214;52.246;14.408;2023-04-24T12:03:06;5.13;;;0.90;;
44508;SDS011;30214;52.246;14.408;2023-04-24T12:05:37;1.73;;;0.70;;
44508;SDS011;30214;52.246;14.408;2023-04-24T12:08:06;1.85;;;0.70;;
44508;SDS011;30214;52.246;14.408;2023-04-24T12:10:42;6.53;;;0.80;;
44508;SDS011;30214;52.246;14.408;2023-04-24T12:13:15;3.08;;;0.80;;
44508;SDS011;30214;52.246;14.408;2023-04-24T12:15:45;2.75;;;0.70;;
44508;SDS011;30214;52.246;14.408;2023-04-24T12:18:13;2.33;;;0.70;;
44508;SDS011;30214;52.246;14.408;2023-04-24T12:20:43;2.83;;;0.80;;
44508;SDS011;30214;52.246;14.408;2023-04-24T12:23:32;3.58;;;0.80;;
44508;SDS011;30214;52.246;14.408;2023-04-24T12:26:06;4.93;;;0.70;;
44508;SDS011;30214;52.246;14.408;2023-04-24T12:28:36;3.92;;;0.80;;
44508;SDS011;30214;52.246;14.408;2023-04-24T12:31:07;3.40;;;0.77;;
44508;SDS011;30214;52.246;14.408;2023-04-24T12:33:45;1.30;;;0.60;;
44508;SDS011;30214;52.246;14.408;2023-04-24T12:36:12;2.05;;;0.82;;
44508;SDS011;30214;52.246;14.408;2023-04-24T12:38:42;1.88;;;0.80;;
44508;SDS011;30214;52.246;14.408;2023-04-24T12:41:16;1.90;;;0.70;;
44508;SDS011;30214;52.246;14.408;2023-04-24T12:43:53;2.05;;;0.90;;
44508;SDS011;30214;52.246;14.408;2023-04-24T12:46:27;3.08;;;1.00;;
44508;SDS011;30214;52.246;14.408;2023-04-24T12:48:59;2.97;;;0.65;;
44508;SDS011;30214;52.246;14.408;2023-04-24T12:51:28;1.77;;;0.70;;
44508;SDS011;30214;52.246;14.408;2023-04-24T12:54:00;5.10;;;0.82;;
44508;SDS011;30214;52.246;14.408;2023-04-24T12:56:38;4.05;;;1.25;;
44508;SDS011;30214;52.246;14.408;2023-04-24T12:59:14;2.70;;;0.88;;
44508;SDS011;30214;52.246;14.408;2023-04-24T13:01:42;1.70;;;0.70;;
44508;SDS011;30214;52.246;14.408;2023-04-24T13:04:15;2.47;;;0.80;;
44508;SDS011;30214;52.246;14.408;2023-04-24T13:06:51;2.10;;;0.77;;
44508;SDS011;30214;52.246;14.408;2023-04-24T13:09:22;2.58;;;0.80;;
44508;SDS011;30214;52.246;14.408;2023-04-24T13:11:54;4.88;;;0.80;;
44508;SDS011;30214;52.246;14.408;2023-04-24T13:14:24;1.95;;;0.85;;
44508;SDS011;30214;52.246;14.408;2023-04-24T13:16:56;3.90;;;1.00;;
44508;SDS011;30214;52.246;14.408;2023-04-24T13:19:25;2.33;;;1.05;;
44508;SDS011;30214;52.246;14.408;2023-04-24T13:21:58;3.55;;;1.10;;
44508;SDS011;30214;52.246;14.408;2023-04-24T13:24:28;2.53;;;1.10;;
44508;SDS011;30214;52.246;14.408;2023-04-24T13:27:03;2.55;;;1.30;;
44508;SDS011;30214;52.246;14.408;2023-04-24T13:31:59;2.03;;;0.95;;
44508;SDS011;30214;52.246;14.408;2023-04-24T13:34:29;2.20;;;0.70;;
44508;SDS011;30214;52.246;14.408;2023-04-24T13:37:02;2.67;;;1.10;;
44508;SDS011;30214;52.246;14.408;2023-04-24T13:39:42;1.67;;;0.80;;
44508;SDS011;30214;52.246;14.408;2023-04-24T13:42:13;2.63;;;0.90;;
44508;SDS011;30214;52.246;14.408;2023-04-24T13:44:42;2.00;;;1.00;;
44508;SDS011;30214;52.246;14.408;2023-04-24T13:47:10;0.90;;;0.70;;
44508;SDS011;30214;52.246;14.408;2023-04-24T13:49:44;6.63;;;0.80;;
44508;SDS011;30214;52.246;14.408;2023-04-24T13:52:15;8.82;;;1.00;;
44508;SDS011;30214;52.246;14.408;2023-04-24T13:54:47;2.47;;;1.02;;
44508;SDS011;30214;52.246;14.408;2023-04-24T13:57:17;5.30;;;1.05;;
44508;SDS011;30214;52.246;14.408;2023-04-24T13:59:46;2.95;;;1.05;;
44508;SDS011;30214;52.246;14.408;2023-04-24T14:02:17;2.95;;;0.85;;
44508;SDS011;30214;52.246;14.408;2023-04-24T14:04:55;9.05;;;0.80;;
44508;SDS011;30214;52.246;14.408;2023-04-24T14:07:25;2.08;;;0.95;;
44508;SDS011;30214;52.246;14.408;2023-04-24T14:09:58;3.05;;;0.93;;
44508;SDS011;30214;52.246;14.408;2023-04-24T14:12:29;4.25;;;1.00;;
44508;SDS011;30214;52.246;14.408;2023-04-24T14:15:04;2.70;;;1.20;;
44508;SDS011;30214;52.246;14.408;2023-04-24T14:17:50;3.17;;;0.95;;
44508;SDS011;30214;52.246;14.408;2023-04-24T14:20:18;2.50;;;1.10;;
44508;SDS011;30214;52.246;14.408;2023-04-24T14:22:51;3.20;;;0.80;;
44508;SDS011;30214;52.246;14.408;2023-04-24T14:25:24;4.18;;;1.00;;
44508;SDS011;30214;52.246;14.408;2023-04-24T14:27:58;3.08;;;1.30;;
44508;SDS011;30214;52.246;14.408;2023-04-24T14:30:29;3.03;;;1.23;;
44508;SDS011;30214;52.246;14.408;2023-04-24T14:32:58;6.35;;;1.30;;
44508;SDS011;30214;52.246;14.408;2023-04-24T14:35:29;2.75;;;1.00;;
44508;SDS011;30214;52.246;14.408;2023-04-24T14:38:00;2.45;;;0.90;;
44508;SDS011;30214;52.246;14.408;2023-04-24T14:40:43;1.85;;;0.75;;
44508;SDS011;30214;52.246;14.408;2023-04-24T14:43:16;2.45;;;0.68;;
44508;SDS011;30214;52.246;14.408;2023-04-24T14:45:45;2.60;;;1.00;;
44508;SDS011;30214;52.246;14.408;2023-04-24T14:48:15;2.15;;;0.80;;
44508;SDS011;30214;52.246;14.408;2023-04-24T14:50:47;2.78;;;0.80;;
44508;SDS011;30214;52.246;14.408;2023-04-24T14:53:16;3.05;;;0.88;;
44508;SDS011;30214;52.246;14.408;2023-04-24T14:55:50;3.78;;;1.05;;
44508;SDS011;30214;52.246;14.408;2023-04-24T14:58:22;1.90;;;0.93;;
44508;SDS011;30214;52.246;14.408;2023-04-24T15:00:53;3.88;;;0.88;;
44508;SDS011;30214;52.246;14.408;2023-04-24T15:03:21;1.95;;;0.85;;
44508;SDS011;30214;52.246;14.408;2023-04-24T15:05:51;3.10;;;1.00;;
44508;SDS011;30214;52.246;14.408;2023-04-24T15:08:21;5.03;;;0.93;;